Time;durP1;ratioP1;P1;durP2;ratioP2;P2;SDS_P1;SDS_P2;PMS_P1;PMS_P2;Temp;Humidity;BMP_temperature;BMP_pressure;BME280_temperature;BME280_humidity;BME280_pressure;Samples;Min_cycle;Max_cycle;Signal;HPM_P1;HPM_P2
2021/09/08 00:02:11;;;;;;;15.32;7.93;;;;;;;;;;6120270;29;20057;-80
2021/09/08 00:05:13;;;;;;;14.30;7.05;;;;;;;;;;6159677;28;20106;-80
2021/09/08 00:08:14;;;;;;;11.82;6.88;;;;;;;;;;6175283;28;20045;-80
2021/09/08 00:11:16;;;;;;;15.02;7.57;;;;;;;;;;6175792;28;20046;-79
2021/09/08 00:14:18;;;;;;;11.98;6.85;;;;;;;;;;6157424;28;20593;-80
2021/09/08 00:17:19;;;;;;;15.00;7.07;;;;;;;;;;6159563;28;20050;-80
2021/09/08 00:20:21;;;;;;;15.65;7.50;;;;;;;;;;6159604;28;20130;-80
2021/09/08 00:23:23;;;;;;;13.77;7.28;;;;;;;;;;6166749;28;20043;-79
2021/09/08 00:26:25;;;;;;;13.98;6.70;;;;;;;;;;6152935;28;20055;-80
2021/09/08 00:29:26;;;;;;;14.30;7.55;;;;;;;;;;6152006;28;20047;-80
2021/09/08 00:32:29;;;;;;;12.35;7.22;;;;;;;;;;6150987;28;20058;-80
2021/09/08 00:35:31;;;;;;;15.05;7.57;;;;;;;;;;6166328;28;20051;-80
2021/09/08 00:38:37;;;;;;;12.77;7.47;;;;;;;;;;6164196;28;20047;-80
2021/09/08 00:41:39;;;;;;;15.13;8.48;;;;;;;;;;6176332;28;20049;-78
2021/09/08 00:44:43;;;;;;;13.52;7.20;;;;;;;;;;6174508;28;20117;-80
2021/09/08 00:47:46;;;;;;;14.32;7.35;;;;;;;;;;6208958;28;20052;-81
2021/09/08 00:50:49;;;;;;;14.35;7.25;;;;;;;;;;6198011;28;20054;-80
2021/09/08 00:53:51;;;;;;;14.20;6.82;;;;;;;;;;6184921;28;20043;-80
2021/09/08 00:56:57;;;;;;;12.35;6.93;;;;;;;;;;6149210;28;20046;-80
2021/09/08 01:00:05;;;;;;;12.80;6.95;;;;;;;;;;6158750;28;20051;-80
2021/09/08 01:03:08;;;;;;;15.27;7.82;;;;;;;;;;6172627;28;20043;-80
2021/09/08 01:06:10;;;;;;;;;;;;;;;;;;6176174;28;20039;-80
2021/09/08 01:09:14;;;;;;;12.52;6.75;;;;;;;;;;6157272;28;19945;-80
2021/09/08 01:12:16;;;;;;;13.80;7.18;;;;;;;;;;6149253;28;20047;-79
2021/09/08 01:15:19;;;;;;;14.90;7.55;;;;;;;;;;6152599;28;20050;-79
2021/09/08 01:18:23;;;;;;;15.50;7.97;;;;;;;;;;6165929;28;20075;-80
2021/09/08 01:21:24;;;;;;;14.43;7.10;;;;;;;;;;6150745;28;20394;-80
2021/09/08 01:24:26;;;;;;;12.32;7.22;;;;;;;;;;6151169;28;20063;-79
2021/09/08 01:27:28;;;;;;;15.60;7.78;;;;;;;;;;6151339;28;20055;-80
2021/09/08 01:30:29;;;;;;;11.98;6.65;;;;;;;;;;6159648;28;20138;-80
2021/09/08 01:33:32;;;;;;;15.25;7.18;;;;;;;;;;6172329;28;20049;-80
2021/09/08 01:36:40;;;;;;;14.37;7.13;;;;;;;;;;6183969;28;20055;-80
2021/09/08 01:39:42;;;;;;;12.18;7.00;;;;;;;;;;6165941;28;20115;-79
2021/09/08 01:42:45;;;;;;;14.70;7.28;;;;;;;;;;6172459;28;20067;-79
2021/09/08 01:45:46;;;;;;;14.27;6.97;;;;;;;;;;6160517;28;20047;-80
2021/09/08 01:48:48;;;;;;;13.63;7.43;;;;;;;;;;6172598;28;20408;-80
2021/09/08 01:51:50;;;;;;;13.55;7.38;;;;;;;;;;6187863;28;20074;-81
2021/09/08 01:54:52;;;;;;;14.77;7.40;;;;;;;;;;6175388;28;20054;-80
2021/09/08 01:57:53;;;;;;;11.70;6.95;;;;;;;;;;6196524;28;20054;-81
2021/09/08 02:00:55;;;;;;;12.93;6.78;;;;;;;;;;6179539;28;20412;-80
2021/09/08 02:03:57;;;;;;;11.45;7.10;;;;;;;;;;6172445;28;20065;-80
2021/09/08 02:06:58;;;;;;;15.02;7.40;;;;;;;;;;6193808;28;20492;-81
2021/09/08 02:10:00;;;;;;;11.95;7.10;;;;;;;;;;6177315;28;20198;-82
2021/09/08 02:13:04;;;;;;;13.65;7.15;;;;;;;;;;6190340;28;20043;-80
2021/09/08 02:16:06;;;;;;;13.20;7.30;;;;;;;;;;6184614;28;20485;-81
2021/09/08 02:19:07;;;;;;;12.80;7.30;;;;;;;;;;6175879;28;20042;-81
2021/09/08 02:22:09;;;;;;;13.52;7.25;;;;;;;;;;6175329;28;20061;-81
2021/09/08 02:25:13;;;;;;;12.77;7.10;;;;;;;;;;6173273;28;20043;-81
2021/09/08 02:28:18;;;;;;;15.88;7.60;;;;;;;;;;6191187;28;20510;-79
2021/09/08 02:31:24;;;;;;;13.98;6.78;;;;;;;;;;6167057;28;20085;-81
2021/09/08 02:34:26;;;;;;;11.45;6.97;;;;;;;;;;6166974;28;20052;-81
2021/09/08 02:37:28;;;;;;;12.15;7.03;;;;;;;;;;6174459;28;20516;-81
2021/09/08 02:40:29;;;;;;;15.85;7.55;;;;;;;;;;6212267;28;20054;-81
2021/09/08 02:43:31;;;;;;;14.82;7.65;;;;;;;;;;6199705;28;20050;-82
2021/09/08 02:46:33;;;;;;;15.32;7.75;;;;;;;;;;6180011;28;20042;-83
2021/09/08 02:49:35;;;;;;;15.23;7.53;;;;;;;;;;6202328;28;20066;-82
2021/09/08 02:52:36;;;;;;;13.60;7.65;;;;;;;;;;6194510;28;20057;-79
2021/09/08 02:55:38;;;;;;;13.65;7.60;;;;;;;;;;6168447;28;20063;-82
2021/09/08 02:58:39;;;;;;;14.18;7.85;;;;;;;;;;6153095;28;20047;-81
2021/09/08 03:01:41;;;;;;;12.85;7.10;;;;;;;;;;6190032;28;20073;-81
2021/09/08 03:04:43;;;;;;;14.30;7.07;;;;;;;;;;6179155;28;20832;-81
2021/09/08 03:07:45;;;;;;;12.68;7.53;;;;;;;;;;6177636;28;20516;-82
2021/09/08 03:10:47;;;;;;;13.75;7.70;;;;;;;;;;6191975;28;20106;-82
2021/09/08 03:13:48;;;;;;;12.18;6.75;;;;;;;;;;6179720;28;20049;-80
2021/09/08 03:16:50;;;;;;;12.88;6.82;;;;;;;;;;6159699;28;20043;-80
2021/09/08 03:19:52;;;;;;;11.98;6.93;;;;;;;;;;6154962;28;20114;-81
2021/09/08 03:22:53;;;;;;;14.00;6.97;;;;;;;;;;6166541;28;20396;-81
2021/09/08 03:25:55;;;;;;;13.40;7.20;;;;;;;;;;6172621;28;20571;-82
2021/09/08 03:28:56;;;;;;;12.93;7.20;;;;;;;;;;6191503;28;20110;-82
2021/09/08 03:31:58;;;;;;;14.55;6.93;;;;;;;;;;6152656;28;20126;-82
2021/09/08 03:35:00;;;;;;;15.20;7.55;;;;;;;;;;6151242;28;20485;-81
2021/09/08 03:38:01;;;;;;;12.27;7.03;;;;;;;;;;6152596;28;20083;-81
2021/09/08 03:41:03;;;;;;;14.57;7.10;;;;;;;;;;6152626;28;20071;-81
2021/09/08 03:44:05;;;;;;;14.00;7.20;;;;;;;;;;6149395;28;20039;-80
2021/09/08 03:47:07;;;;;;;14.57;7.53;;;;;;;;;;6164983;28;20053;-82
2021/09/08 03:50:10;;;;;;;13.88;7.25;;;;;;;;;;6157965;28;20416;-80
2021/09/08 03:53:12;;;;;;;15.95;8.20;;;;;;;;;;6190801;28;20038;-81
2021/09/08 03:56:13;;;;;;;16.02;8.45;;;;;;;;;;6150403;28;20124;-81
2021/09/08 03:59:15;;;;;;;15.55;7.68;;;;;;;;;;6150570;28;20057;-81
2021/09/08 04:02:17;;;;;;;15.45;7.82;;;;;;;;;;6149964;28;20063;-80
2021/09/08 04:05:19;;;;;;;13.02;7.03;;;;;;;;;;6152028;28;20043;-79
2021/09/08 04:08:20;;;;;;;15.95;8.65;;;;;;;;;;6171207;28;20051;-81
2021/09/08 04:11:22;;;;;;;21.70;9.98;;;;;;;;;;6174378;28;20129;-81
2021/09/08 04:14:24;;;;;;;21.52;9.77;;;;;;;;;;6173693;28;20046;-82
2021/09/08 04:17:25;;;;;;;18.90;9.02;;;;;;;;;;6156302;28;20171;-82
2021/09/08 04:20:27;;;;;;;18.58;8.80;;;;;;;;;;6172457;28;20042;-84
2021/09/08 04:23:28;;;;;;;21.00;9.88;;;;;;;;;;6166320;28;20053;-82
2021/09/08 04:26:30;;;;;;;17.60;8.95;;;;;;;;;;6175266;28;20671;-82
2021/09/08 04:29:32;;;;;;;16.05;8.30;;;;;;;;;;6182629;28;20055;-82
2021/09/08 04:32:34;;;;;;;17.15;8.75;;;;;;;;;;6190089;28;20049;-84
2021/09/08 04:35:35;;;;;;;13.88;7.78;;;;;;;;;;6168964;28;20510;-83
2021/09/08 04:38:37;;;;;;;17.02;8.23;;;;;;;;;;6182180;28;20526;-82
2021/09/08 04:41:39;;;;;;;13.75;7.65;;;;;;;;;;6146200;28;20425;-82
2021/09/08 04:44:42;;;;;;;19.60;9.00;;;;;;;;;;6165266;28;20051;-82
2021/09/08 04:47:43;;;;;;;17.55;8.57;;;;;;;;;;6169553;28;20608;-81
2021/09/08 04:50:45;;;;;;;18.67;8.98;;;;;;;;;;6168251;28;20047;-83
2021/09/08 04:53:47;;;;;;;16.48;8.27;;;;;;;;;;6159960;28;20126;-83
2021/09/08 04:56:48;;;;;;;21.20;10.05;;;;;;;;;;6159979;28;20051;-85
2021/09/08 04:59:50;;;;;;;18.73;9.25;;;;;;;;;;6165109;28;20496;-82
2021/09/08 05:02:51;;;;;;;18.95;9.80;;;;;;;;;;6169190;28;20052;-81
2021/09/08 05:05:53;;;;;;;18.30;8.48;;;;;;;;;;6169451;28;20125;-83
2021/09/08 05:08:55;;;;;;;18.80;7.93;;;;;;;;;;6166294;28;20166;-81
2021/09/08 05:11:57;;;;;;;18.00;9.00;;;;;;;;;;6166718;28;20050;-81
2021/09/08 05:14:58;;;;;;;18.48;9.13;;;;;;;;;;6159977;28;20066;-81
2021/09/08 05:18:01;;;;;;;20.05;9.10;;;;;;;;;;6143144;28;20039;-81
2021/09/08 05:21:02;;;;;;;17.40;8.98;;;;;;;;;;6144945;28;20058;-82
2021/09/08 05:24:04;;;;;;;18.02;8.10;;;;;;;;;;6143301;28;20054;-83
2021/09/08 05:27:06;;;;;;;16.08;8.23;;;;;;;;;;6144889;28;20671;-82
2021/09/08 05:30:08;;;;;;;18.05;8.70;;;;;;;;;;6157997;28;20510;-81
2021/09/08 05:33:09;;;;;;;19.10;8.55;;;;;;;;;;6141453;28;20493;-82
2021/09/08 05:36:11;;;;;;;18.40;8.75;;;;;;;;;;6158551;28;20049;-83
2021/09/08 05:39:13;;;;;;;16.10;9.07;;;;;;;;;;6177181;28;20042;-82
2021/09/08 05:42:15;;;;;;;18.70;9.55;;;;;;;;;;6167611;28;20050;-82
2021/09/08 05:45:16;;;;;;;16.13;8.70;;;;;;;;;;6173215;28;20043;-82
2021/09/08 05:48:18;;;;;;;15.48;8.27;;;;;;;;;;6210700;28;20050;-83
2021/09/08 05:51:20;;;;;;;15.23;8.35;;;;;;;;;;6212080;28;20050;-82
2021/09/08 05:54:21;;;;;;;14.52;8.52;;;;;;;;;;6161427;28;20039;-81
2021/09/08 05:57:23;;;;;;;20.42;9.30;;;;;;;;;;6148008;28;20110;-83
2021/09/08 06:00:24;;;;;;;16.33;8.93;;;;;;;;;;6150960;28;20103;-82
2021/09/08 06:03:26;;;;;;;16.02;8.77;;;;;;;;;;6147304;28;20117;-83
2021/09/08 06:06:28;;;;;;;18.58;8.82;;;;;;;;;;6164184;28;20043;-82
2021/09/08 06:09:30;;;;;;;19.10;9.73;;;;;;;;;;6149705;28;20069;-83
2021/09/08 06:12:31;;;;;;;15.48;8.55;;;;;;;;;;6165392;28;20134;-82
2021/09/08 06:15:33;;;;;;;13.95;7.88;;;;;;;;;;6172707;28;20134;-83
2021/09/08 06:18:39;;;;;;;14.52;7.68;;;;;;;;;;6188655;28;20941;-82
2021/09/08 06:21:41;;;;;;;15.65;8.23;;;;;;;;;;6171886;28;20137;-83
2021/09/08 06:24:42;;;;;;;15.88;8.32;;;;;;;;;;6174715;28;20047;-83
2021/09/08 06:27:44;;;;;;;17.33;9.23;;;;;;;;;;6190906;28;20086;-81
2021/09/08 06:30:45;;;;;;;17.33;9.90;;;;;;;;;;6172789;28;20054;-83
2021/09/08 06:33:48;;;;;;;19.50;9.25;;;;;;;;;;6147711;28;20047;-81
2021/09/08 06:36:50;;;;;;;16.13;9.43;;;;;;;;;;6150961;28;20054;-81
2021/09/08 06:39:51;;;;;;;15.93;8.68;;;;;;;;;;6182801;28;21077;-81
2021/09/08 06:42:53;;;;;;;15.50;8.23;;;;;;;;;;6183498;28;20054;-82
2021/09/08 06:45:56;;;;;;;14.38;7.88;;;;;;;;;;6176223;28;20128;-82
2021/09/08 06:48:58;;;;;;;16.08;9.07;;;;;;;;;;6193958;28;20428;-83
2021/09/08 06:52:00;;;;;;;15.38;8.55;;;;;;;;;;6195913;28;20046;-82
2021/09/08 06:55:02;;;;;;;16.17;8.45;;;;;;;;;;6173769;28;20134;-83
2021/09/08 06:58:07;;;;;;;17.17;9.30;;;;;;;;;;6161704;28;20043;-82
2021/09/08 07:01:09;;;;;;;18.52;9.10;;;;;;;;;;6154644;28;20117;-81
2021/09/08 07:04:11;;;;;;;18.75;9.45;;;;;;;;;;6145578;28;20045;-81
2021/09/08 07:07:13;;;;;;;15.60;8.60;;;;;;;;;;6145822;28;20047;-81
2021/09/08 07:10:14;;;;;;;14.93;8.80;;;;;;;;;;6165244;28;20042;-82
2021/09/08 07:13:16;;;;;;;14.48;8.60;;;;;;;;;;6154276;28;20100;-82
2021/09/08 07:16:18;;;;;;;16.00;8.45;;;;;;;;;;6165202;28;20051;-82
2021/09/08 07:19:19;;;;;;;13.60;8.25;;;;;;;;;;6145105;28;20174;-84
2021/09/08 07:22:21;;;;;;;13.18;7.88;;;;;;;;;;6157421;28;20039;-84
2021/09/08 07:25:24;;;;;;;14.55;8.48;;;;;;;;;;6157610;28;20050;-82
2021/09/08 07:28:27;;;;;;;15.98;8.45;;;;;;;;;;6167102;28;20049;-80
2021/09/08 07:31:30;;;;;;;14.52;8.05;;;;;;;;;;6147731;28;20556;-82
2021/09/08 07:34:32;;;;;;;14.40;9.03;;;;;;;;;;6160131;28;20043;-83
2021/09/08 07:37:33;;;;;;;15.32;8.65;;;;;;;;;;6143905;28;20466;-81
2021/09/08 07:40:35;;;;;;;15.43;8.73;;;;;;;;;;6177868;28;20055;-81
2021/09/08 07:43:36;;;;;;;18.85;9.18;;;;;;;;;;6169188;28;20066;-82
2021/09/08 07:46:38;;;;;;;16.08;9.73;;;;;;;;;;6177565;28;20037;-84
2021/09/08 07:49:40;;;;;;;14.90;8.55;;;;;;;;;;6168561;28;20178;-82
2021/09/08 07:52:41;;;;;;;16.92;8.60;;;;;;;;;;6179887;28;20046;-82
2021/09/08 07:55:43;;;;;;;14.00;9.02;;;;;;;;;;6161127;28;20047;-82
2021/09/08 07:58:45;;;;;;;17.80;9.45;;;;;;;;;;6163302;28;20575;-83
2021/09/08 08:01:47;;;;;;;15.30;9.05;;;;;;;;;;6174162;28;20050;-83
2021/09/08 08:04:49;;;;;;;16.88;9.15;;;;;;;;;;6168382;28;20050;-83
2021/09/08 08:07:51;;;;;;;15.35;8.85;;;;;;;;;;6167987;28;20047;-83
2021/09/08 08:10:52;;;;;;;15.65;8.88;;;;;;;;;;6174350;28;20520;-81
2021/09/08 08:13:54;;;;;;;16.42;8.85;;;;;;;;;;6207652;28;20046;-80
2021/09/08 08:17:05;;;;;;;14.00;8.55;;;;;;;;;;6168975;28;20075;-82
2021/09/08 08:20:09;;;;;;;14.75;9.07;;;;;;;;;;6165522;28;20050;-84
2021/09/08 08:23:11;;;;;;;15.45;8.65;;;;;;;;;;6179374;28;20066;-84
2021/09/08 08:26:13;;;;;;;19.73;9.77;;;;;;;;;;6182327;28;20041;-81
2021/09/08 08:29:14;;;;;;;15.38;8.95;;;;;;;;;;6149129;28;20054;-81
2021/09/08 08:32:16;;;;;;;14.25;8.75;;;;;;;;;;6157757;28;20054;-81
2021/09/08 08:35:18;;;;;;;12.50;8.95;;;;;;;;;;6143184;28;20057;-83
2021/09/08 08:38:23;;;;;;;;;;;;;;;;;;6151413;28;20413;-82
2021/09/08 08:41:25;;;;;;;14.48;9.52;;;;;;;;;;6143769;28;19929;-82
2021/09/08 08:44:28;;;;;;;15.40;10.45;;;;;;;;;;6176535;28;20049;-84
2021/09/08 08:47:30;;;;;;;12.82;9.57;;;;;;;;;;6189702;28;20046;-83
2021/09/08 08:50:32;;;;;;;15.80;10.20;;;;;;;;;;6195085;28;20073;-81
2021/09/08 08:53:34;;;;;;;14.35;10.60;;;;;;;;;;6192399;28;20510;-81
2021/09/08 08:56:35;;;;;;;16.15;10.18;;;;;;;;;;6146301;28;20055;-81
2021/09/08 08:59:42;;;;;;;15.43;10.23;;;;;;;;;;6155860;28;20051;-82
2021/09/08 09:02:47;;;;;;;14.30;9.90;;;;;;;;;;6175829;28;20050;-81
2021/09/08 09:06:03;;;;;;;13.18;10.25;;;;;;;;;;6169591;28;20427;-82
2021/09/08 09:09:08;;;;;;;14.07;10.18;;;;;;;;;;6144314;28;20097;-83
2021/09/08 09:12:09;;;;;;;14.13;10.40;;;;;;;;;;6170496;28;20114;-82
2021/09/08 09:15:18;;;;;;;14.68;10.23;;;;;;;;;;6179605;28;20067;-82
2021/09/08 09:18:19;;;;;;;14.93;10.25;;;;;;;;;;6152135;28;20114;-82
2021/09/08 09:21:24;;;;;;;17.40;10.02;;;;;;;;;;6148604;28;20051;-81
2021/09/08 09:24:27;;;;;;;15.70;10.70;;;;;;;;;;6148097;28;20134;-81
2021/09/08 09:27:34;;;;;;;14.07;10.25;;;;;;;;;;6147646;28;20085;-82
2021/09/08 09:30:41;;;;;;;13.00;10.05;;;;;;;;;;6166144;28;20051;-82
2021/09/08 09:34:03;;;;;;;14.25;10.18;;;;;;;;;;6150123;28;20039;-80
2021/09/08 09:37:05;;;;;;;15.85;10.80;;;;;;;;;;6151311;28;20050;-81
2021/09/08 09:40:08;;;;;;;15.30;10.43;;;;;;;;;;6151929;28;20108;-81
2021/09/08 09:43:11;;;;;;;12.65;9.60;;;;;;;;;;6151085;28;20127;-81
2021/09/08 09:46:15;;;;;;;16.58;10.38;;;;;;;;;;6171404;28;20065;-83
2021/09/08 09:49:22;;;;;;;13.98;10.63;;;;;;;;;;6198540;28;20052;-82
2021/09/08 09:52:27;;;;;;;15.15;10.00;;;;;;;;;;6193408;28;20043;-82
2021/09/08 09:55:29;;;;;;;12.88;9.98;;;;;;;;;;6175262;28;20111;-82
2021/09/08 09:58:31;;;;;;;13.80;10.02;;;;;;;;;;6187983;28;20046;-82
2021/09/08 10:01:32;;;;;;;14.70;9.80;;;;;;;;;;6170502;28;20039;-82
2021/09/08 10:04:34;;;;;;;13.65;10.88;;;;;;;;;;6179054;28;20142;-81
2021/09/08 10:07:37;;;;;;;13.70;10.00;;;;;;;;;;6197021;28;20110;-83
2021/09/08 10:10:40;;;;;;;11.93;9.82;;;;;;;;;;6150619;28;20102;-82
2021/09/08 10:13:50;;;;;;;15.73;9.77;;;;;;;;;;6165577;28;20152;-82
2021/09/08 10:16:53;;;;;;;13.55;10.02;;;;;;;;;;6188873;28;20045;-83
2021/09/08 10:20:05;;;;;;;13.02;9.43;;;;;;;;;;6197951;28;20055;-82
2021/09/08 10:23:10;;;;;;;13.75;9.45;;;;;;;;;;6187055;28;20057;-82
2021/09/08 10:26:28;;;;;;;14.77;10.25;;;;;;;;;;6161575;28;20106;-83
2021/09/08 10:29:29;;;;;;;13.15;9.93;;;;;;;;;;6153511;28;20118;-81
2021/09/08 10:32:32;;;;;;;12.35;10.05;;;;;;;;;;6150554;28;20062;-83
2021/09/08 10:35:38;;;;;;;10.93;9.00;;;;;;;;;;6153834;28;20100;-81
2021/09/08 10:38:41;;;;;;;14.88;9.75;;;;;;;;;;6169562;28;20047;-83
2021/09/08 10:41:45;;;;;;;12.63;9.43;;;;;;;;;;6156118;28;20058;-83
2021/09/08 10:44:52;;;;;;;13.20;9.93;;;;;;;;;;6157481;28;20049;-81
2021/09/08 10:47:55;;;;;;;10.23;8.60;;;;;;;;;;6202610;28;20125;-80
2021/09/08 10:50:57;;;;;;;12.00;9.52;;;;;;;;;;6218507;28;20116;-81
2021/09/08 10:54:06;;;;;;;11.67;9.67;;;;;;;;;;6192058;28;20153;-81
2021/09/08 10:57:08;;;;;;;12.32;8.95;;;;;;;;;;6190540;28;20855;-82
2021/09/08 11:00:19;;;;;;;12.03;9.27;;;;;;;;;;6164614;28;20497;-81
2021/09/08 11:03:21;;;;;;;12.88;9.40;;;;;;;;;;6147711;28;20047;-84
2021/09/08 11:06:34;;;;;;;10.82;9.00;;;;;;;;;;6149672;28;20047;-81
2021/09/08 11:09:35;;;;;;;12.95;8.88;;;;;;;;;;6168723;28;20067;-83
2021/09/08 11:12:55;;;;;;;11.63;9.25;;;;;;;;;;6165833;28;20138;-82
2021/09/08 11:15:57;;;;;;;12.07;9.05;;;;;;;;;;6156459;28;20047;-81
2021/09/08 11:19:02;;;;;;;12.18;9.77;;;;;;;;;;6150784;28;20043;-84
2021/09/08 11:22:04;;;;;;;11.57;9.05;;;;;;;;;;6147774;28;20074;-80
2021/09/08 11:25:06;;;;;;;9.93;8.80;;;;;;;;;;6163503;28;20035;-81
2021/09/08 11:28:09;;;;;;;10.30;8.43;;;;;;;;;;6149235;28;20047;-81
2021/09/08 11:31:14;;;;;;;10.65;8.68;;;;;;;;;;6163394;28;20561;-81
2021/09/08 11:34:24;;;;;;;13.45;9.48;;;;;;;;;;6161643;28;20541;-82
2021/09/08 11:37:26;;;;;;;12.50;8.57;;;;;;;;;;6147965;28;20122;-82
2021/09/08 11:40:31;;;;;;;10.68;8.60;;;;;;;;;;6155115;28;20077;-83
2021/09/08 11:43:38;;;;;;;9.68;8.60;;;;;;;;;;6148088;28;20055;-82
2021/09/08 11:46:39;;;;;;;9.88;8.82;;;;;;;;;;6150703;28;20123;-82
2021/09/08 11:49:41;;;;;;;10.70;9.15;;;;;;;;;;6165914;28;20043;-82
2021/09/08 11:52:45;;;;;;;10.18;8.85;;;;;;;;;;6169038;28;20050;-82
2021/09/08 11:55:46;;;;;;;12.82;8.77;;;;;;;;;;6172800;28;20262;-82
2021/09/08 11:58:53;;;;;;;9.88;8.50;;;;;;;;;;6190499;28;20117;-82
2021/09/08 12:01:55;;;;;;;10.93;8.43;;;;;;;;;;6165955;28;20726;-82
2021/09/08 12:04:57;;;;;;;10.68;8.25;;;;;;;;;;6150864;28;20178;-83
2021/09/08 12:07:59;;;;;;;10.05;8.38;;;;;;;;;;6159533;28;20141;-82
2021/09/08 12:11:01;;;;;;;9.00;8.10;;;;;;;;;;6171692;28;20050;-82
2021/09/08 12:14:22;;;;;;;10.10;8.25;;;;;;;;;;6198082;28;20042;-81
2021/09/08 12:17:28;;;;;;;9.45;8.45;;;;;;;;;;6150823;28;20043;-82
2021/09/08 12:20:29;;;;;;;12.05;8.35;;;;;;;;;;6151316;28;20053;-81
2021/09/08 12:23:32;;;;;;;11.35;8.23;;;;;;;;;;6149961;28;20102;-81
2021/09/08 12:26:40;;;;;;;12.25;8.73;;;;;;;;;;6151302;28;20142;-82
2021/09/08 12:29:47;;;;;;;11.90;8.70;;;;;;;;;;6154373;28;20055;-82
2021/09/08 12:32:59;;;;;;;10.40;8.25;;;;;;;;;;6166916;28;20054;-83
2021/09/08 12:36:14;;;;;;;10.50;8.40;;;;;;;;;;6173669;28;20500;-81
2021/09/08 12:39:17;;;;;;;9.20;7.78;;;;;;;;;;6178122;28;20098;-82
2021/09/08 12:42:24;;;;;;;9.60;7.72;;;;;;;;;;6178575;28;20043;-82
2021/09/08 12:45:27;;;;;;;10.05;8.40;;;;;;;;;;6161166;28;20126;-81
2021/09/08 12:48:29;;;;;;;9.32;7.85;;;;;;;;;;6156463;28;20102;-78
2021/09/08 12:51:31;;;;;;;10.88;8.90;;;;;;;;;;6158483;28;20053;-78
2021/09/08 12:54:33;;;;;;;10.85;8.65;;;;;;;;;;6166876;28;20054;-80
2021/09/08 12:57:34;;;;;;;9.60;8.60;;;;;;;;;;6172810;28;20064;-77
2021/09/08 13:00:36;;;;;;;10.00;8.85;;;;;;;;;;6130111;28;20528;-80
2021/09/08 13:03:38;;;;;;;;;;;;;;;;;;6157182;28;20047;-80
2021/09/08 13:06:40;;;;;;;9.13;7.97;;;;;;;;;;6158963;28;19930;-80
2021/09/08 13:09:42;;;;;;;10.80;8.57;;;;;;;;;;6158258;28;20043;-81
2021/09/08 13:12:45;;;;;;;10.40;8.68;;;;;;;;;;6157942;28;20087;-83
2021/09/08 13:15:47;;;;;;;9.35;8.07;;;;;;;;;;6163215;28;20054;-82
2021/09/08 13:18:48;;;;;;;11.48;8.75;;;;;;;;;;6164626;28;20068;-83
2021/09/08 13:21:50;;;;;;;9.57;7.97;;;;;;;;;;6163622;28;20045;-83
2021/09/08 13:24:52;;;;;;;10.65;8.50;;;;;;;;;;6161458;28;20062;-83
2021/09/08 13:27:58;;;;;;;11.10;8.18;;;;;;;;;;6136339;28;20047;-82
2021/09/08 13:30:59;;;;;;;11.60;8.52;;;;;;;;;;6170252;28;20058;-82
2021/09/08 13:34:03;;;;;;;10.02;8.82;;;;;;;;;;6170588;28;20046;-82
2021/09/08 13:37:05;;;;;;;9.68;8.52;;;;;;;;;;6162826;28;20136;-82
2021/09/08 13:40:08;;;;;;;10.63;8.05;;;;;;;;;;6145441;28;20047;-82
2021/09/08 13:43:09;;;;;;;11.32;7.85;;;;;;;;;;6163937;28;20049;-81
2021/09/08 13:46:17;;;;;;;8.65;7.40;;;;;;;;;;6150148;28;20046;-80
2021/09/08 13:49:19;;;;;;;9.73;7.82;;;;;;;;;;6165515;28;20101;-82
2021/09/08 13:52:21;;;;;;;9.35;8.20;;;;;;;;;;6148818;28;20049;-81
2021/09/08 13:55:22;;;;;;;8.38;7.57;;;;;;;;;;6145654;28;20047;-80
2021/09/08 13:58:26;;;;;;;9.55;8.25;;;;;;;;;;6148917;28;20563;-82
2021/09/08 14:01:28;;;;;;;11.00;8.18;;;;;;;;;;6154563;28;20046;-82
2021/09/08 14:04:30;;;;;;;9.90;7.90;;;;;;;;;;6171124;28;20039;-82
2021/09/08 14:07:32;;;;;;;9.43;8.50;;;;;;;;;;6169860;28;20110;-80
2021/09/08 14:10:36;;;;;;;9.05;8.00;;;;;;;;;;6162580;28;20051;-78
2021/09/08 14:13:38;;;;;;;9.93;7.63;;;;;;;;;;6163183;28;20051;-78
2021/09/08 14:16:39;;;;;;;11.60;7.82;;;;;;;;;;6165413;28;20500;-77
2021/09/08 14:19:47;;;;;;;7.80;7.00;;;;;;;;;;6156853;28;20413;-81
2021/09/08 14:22:48;;;;;;;7.97;7.05;;;;;;;;;;6153997;28;20047;-80
2021/09/08 14:25:52;;;;;;;7.93;7.13;;;;;;;;;;6189934;28;20089;-82
2021/09/08 14:28:53;;;;;;;8.38;7.45;;;;;;;;;;6182830;28;20047;-80
2021/09/08 14:31:55;;;;;;;9.75;7.88;;;;;;;;;;6163305;28;20039;-77
2021/09/08 14:34:56;;;;;;;10.27;7.88;;;;;;;;;;6166045;28;20065;-81
2021/09/08 14:37:58;;;;;;;8.82;7.75;;;;;;;;;;6178133;28;20511;-76
2021/09/08 14:40:59;;;;;;;8.95;7.70;;;;;;;;;;6173882;28;20054;-79
2021/09/08 14:44:01;;;;;;;13.65;8.10;;;;;;;;;;6182748;28;20050;-78
2021/09/08 14:47:03;;;;;;;8.45;7.13;;;;;;;;;;6161563;28;20039;-79
2021/09/08 14:50:05;;;;;;;8.57;7.00;;;;;;;;;;6159660;28;20050;-80
2021/09/08 14:53:07;;;;;;;10.93;7.50;;;;;;;;;;6167906;28;20054;-79
2021/09/08 14:56:11;;;;;;;8.85;6.75;;;;;;;;;;6166587;28;20066;-81
2021/09/08 14:59:13;;;;;;;7.10;6.13;;;;;;;;;;6158154;28;20049;-81
2021/09/08 15:02:14;;;;;;;8.30;5.88;;;;;;;;;;6146952;28;20055;-79
2021/09/08 15:05:16;;;;;;;8.57;6.57;;;;;;;;;;6157634;28;20054;-81
2021/09/08 15:08:19;;;;;;;7.30;6.30;;;;;;;;;;6173309;28;20083;-81
2021/09/08 15:11:20;;;;;;;;;;;;;;;;;;6139997;28;20064;-79
2021/09/08 15:14:24;;;;;;;7.43;6.60;;;;;;;;;;6165898;28;19969;-78
2021/09/08 15:17:25;;;;;;;7.70;6.78;;;;;;;;;;6153425;28;20681;-77
2021/09/08 15:20:27;;;;;;;9.48;6.78;;;;;;;;;;6169860;28;20039;-80
2021/09/08 15:23:28;;;;;;;8.00;6.17;;;;;;;;;;6158555;28;20068;-80
2021/09/08 15:26:30;;;;;;;9.63;6.60;;;;;;;;;;6162153;28;20442;-80
2021/09/08 15:29:32;;;;;;;8.45;6.80;;;;;;;;;;6167175;28;20055;-80
2021/09/08 15:32:34;;;;;;;8.45;6.65;;;;;;;;;;6159590;28;20053;-80
2021/09/08 15:35:35;;;;;;;6.82;6.15;;;;;;;;;;6165593;28;20050;-78
2021/09/08 15:38:37;;;;;;;9.25;6.35;;;;;;;;;;6178526;28;20051;-79
2021/09/08 15:41:39;;;;;;;7.63;6.82;;;;;;;;;;6177534;28;20126;-81
2021/09/08 15:44:41;;;;;;;8.55;6.68;;;;;;;;;;6161421;28;20049;-80
2021/09/08 15:47:42;;;;;;;7.07;6.35;;;;;;;;;;6167814;28;20071;-78
2021/09/08 15:50:44;;;;;;;8.65;6.28;;;;;;;;;;6156077;28;20042;-79
2021/09/08 15:53:46;;;;;;;9.10;6.10;;;;;;;;;;6156716;28;20042;-78
2021/09/08 15:56:47;;;;;;;8.23;6.60;;;;;;;;;;6185975;28;20042;-80
2021/09/08 15:59:49;;;;;;;8.85;5.82;;;;;;;;;;6148296;28;20043;-79
2021/09/08 16:02:50;;;;;;;7.77;6.47;;;;;;;;;;6175299;28;20039;-80
2021/09/08 16:05:52;;;;;;;9.05;6.78;;;;;;;;;;6153865;28;20442;-79
2021/09/08 16:08:54;;;;;;;7.00;6.20;;;;;;;;;;6177620;28;20130;-80
2021/09/08 16:11:56;;;;;;;8.33;6.70;;;;;;;;;;6159202;28;20042;-82
2021/09/08 16:14:57;;;;;;;9.57;7.05;;;;;;;;;;6152849;28;20157;-81
2021/09/08 16:17:59;;;;;;;8.55;7.65;;;;;;;;;;6191027;28;20055;-81
2021/09/08 16:21:02;;;;;;;8.40;6.72;;;;;;;;;;6188573;28;20046;-84
2021/09/08 16:24:03;;;;;;;10.35;7.70;;;;;;;;;;6174515;28;20053;-81
2021/09/08 16:27:05;;;;;;;7.90;7.00;;;;;;;;;;6175389;28;20047;-82
2021/09/08 16:30:08;;;;;;;8.90;6.80;;;;;;;;;;6184332;28;20047;-84
2021/09/08 16:33:11;;;;;;;17.85;14.10;;;;;;;;;;6176005;28;20129;-81
2021/09/08 16:36:14;;;;;;;11.30;9.50;;;;;;;;;;6174200;28;20128;-83
2021/09/08 16:39:15;;;;;;;8.40;6.35;;;;;;;;;;6162943;28;20053;-83
2021/09/08 16:42:17;;;;;;;7.37;6.23;;;;;;;;;;6198867;28;20043;-80
2021/09/08 16:45:19;;;;;;;8.43;6.97;;;;;;;;;;6193073;28;20488;-80
2021/09/08 16:48:21;;;;;;;12.45;7.90;;;;;;;;;;6189749;28;20673;-79
2021/09/08 16:51:24;;;;;;;9.35;7.63;;;;;;;;;;6178578;28;20051;-82
2021/09/08 16:54:26;;;;;;;10.77;7.90;;;;;;;;;;6177594;28;20043;-80
2021/09/08 16:57:28;;;;;;;16.37;13.93;;;;;;;;;;6150473;28;20337;-80
2021/09/08 17:00:30;;;;;;;13.73;10.32;;;;;;;;;;6191758;28;20046;-80
2021/09/08 17:03:31;;;;;;;9.17;7.37;;;;;;;;;;6180773;28;20046;-80
2021/09/08 17:06:33;;;;;;;11.35;8.57;;;;;;;;;;6176772;28;20051;-77
2021/09/08 17:09:35;;;;;;;9.38;8.35;;;;;;;;;;6168278;28;20138;-80
2021/09/08 17:12:37;;;;;;;8.43;7.28;;;;;;;;;;6192278;28;20049;-80
2021/09/08 17:15:38;;;;;;;9.10;7.45;;;;;;;;;;6177222;28;20067;-84
2021/09/08 17:18:41;;;;;;;12.37;9.60;;;;;;;;;;6145387;28;20122;-83
2021/09/08 17:21:43;;;;;;;18.83;15.52;;;;;;;;;;6160308;28;20054;-81
2021/09/08 17:24:44;;;;;;;9.67;8.10;;;;;;;;;;6164555;28;20043;-85
2021/09/08 17:27:46;;;;;;;9.65;7.50;;;;;;;;;;6143057;28;20093;-87
2021/09/08 17:30:48;;;;;;;8.98;7.50;;;;;;;;;;6144196;28;20177;-82
2021/09/08 17:33:50;;;;;;;9.97;7.80;;;;;;;;;;6160504;28;20047;-81
2021/09/08 17:36:52;;;;;;;11.07;9.03;;;;;;;;;;6159590;28;20049;-80
2021/09/08 17:40:03;;;;;;;14.57;10.02;;;;;;;;;;6149320;28;20039;-81
2021/09/08 17:43:05;;;;;;;9.45;7.75;;;;;;;;;;6160753;28;20094;-81
2021/09/08 17:46:08;;;;;;;8.60;7.03;;;;;;;;;;6166537;28;20113;-78
2021/09/08 17:49:12;;;;;;;9.00;7.25;;;;;;;;;;6161465;28;20055;-81
2021/09/08 17:52:13;;;;;;;8.35;6.97;;;;;;;;;;6171379;28;20468;-82
2021/09/08 17:55:30;;;;;;;8.85;7.03;;;;;;;;;;6146072;28;20054;-82
2021/09/08 17:58:32;;;;;;;10.52;7.38;;;;;;;;;;6148919;28;20114;-80
2021/09/08 18:01:34;;;;;;;10.10;7.50;;;;;;;;;;6158682;28;20420;-80
2021/09/08 18:04:36;;;;;;;10.07;7.20;;;;;;;;;;6175202;28;20073;-82